createdAt,value
2022-10-15T00:01:21.535Z,97118.16
2022-10-15T00:03:48.491Z,97112.25
2022-10-15T00:06:20.194Z,97113.91
2022-10-15T00:08:47.817Z,97110.31
2022-10-15T00:11:22.652Z,97107.84
2022-10-15T00:13:53.352Z,97100.16
2022-10-15T00:16:23.559Z,97100.81
2022-10-15T00:18:51.652Z,97104.91
2022-10-15T00:21:21.331Z,97102.47
2022-10-15T00:23:49.608Z,97106.38
2022-10-15T00:26:24.361Z,97101.28
2022-10-15T00:28:54.187Z,97099.34
2022-10-15T00:31:24.196Z,97092.47
2022-10-15T00:33:52.592Z,97095.91
2022-10-15T00:36:27.261Z,97081.03
2022-10-15T00:38:54.578Z,97088.72
2022-10-15T00:41:25.972Z,97084.47
2022-10-15T00:43:56.832Z,97084.47
2022-10-15T00:46:37.723Z,97085.13
2022-10-15T00:49:16.781Z,97080.56
2022-10-15T00:52:10.004Z,97072.03
2022-10-15T00:54:44.381Z,97073.84
2022-10-15T00:57:12.503Z,97066.81
2022-10-15T00:59:48.884Z,97070.41
2022-10-15T01:02:19.147Z,97066.16
2022-10-15T01:04:47.715Z,97059.44
2022-10-15T01:07:14.542Z,97063.84
2022-10-15T01:09:42.858Z,97047.34
2022-10-15T01:12:30.343Z,97053.41
2022-10-15T01:15:21.287Z,97047.34
2022-10-15T01:18:06.517Z,97055.03
2022-10-15T01:21:09.637Z,97046.38
2022-10-15T01:23:53.918Z,97035.75
2022-10-15T01:27:04.072Z,97034.75
2022-10-15T01:30:12.312Z,97024.47
2022-10-15T01:33:03.938Z,97028.06
2022-10-15T01:35:43.790Z,97027.25
2022-10-15T01:38:49.521Z,97024.63
2022-10-15T01:41:28.794Z,97026.25
2022-10-15T01:44:09.164Z,97023.66
2022-10-15T01:47:03.183Z,97025.28
2022-10-15T01:49:37.145Z,97024.63
2022-10-15T01:52:14.850Z,97015.13
2022-10-15T01:54:43.676Z,97018.41
2022-10-15T01:57:12.998Z,97007.94
2022-10-15T01:59:42.583Z,97018.41
2022-10-15T02:02:09.368Z,97007.13
2022-10-15T02:04:36.123Z,97015.78
2022-10-15T02:07:40.205Z,97011.22
2022-10-15T02:10:21.970Z,97013.19
2022-10-15T02:13:38.923Z,97014.16
2022-10-15T02:16:24.886Z,97013.19
2022-10-15T02:19:08.234Z,97010.41
2022-10-15T02:22:18.836Z,97004.19
2022-10-15T02:25:06.696Z,96996.50
2022-10-15T02:27:35.106Z,96992.25
2022-10-15T02:30:09.323Z,96998.31
2022-10-15T02:32:41.364Z,96989.63
2022-10-15T02:35:11.871Z,96991.28
2022-10-15T02:37:46.205Z,96993.91
2022-10-15T02:40:13.389Z,96989.63
2022-10-15T02:42:40.548Z,96979.47
2022-10-15T02:45:08.803Z,96983.75
2022-10-15T02:47:35.551Z,96988.97
2022-10-15T02:50:03.968Z,96972.47
2022-10-15T02:52:30.758Z,96976.56
2022-10-15T02:54:57.468Z,96972.16
2022-10-15T02:57:24.403Z,96976.56
2022-10-15T02:59:51.348Z,96978.19
2022-10-15T03:02:19.328Z,96977.38
2022-10-15T03:04:46.419Z,96978.19
2022-10-15T03:07:14.075Z,96980.16
2022-10-15T03:09:40.838Z,96970.69
2022-10-15T03:12:07.617Z,96967.25
2022-10-15T03:14:34.484Z,96962.97
2022-10-15T03:17:01.243Z,96964.75
2022-10-15T03:19:27.977Z,96970.81
2022-10-15T03:21:54.754Z,96967.91
2022-10-15T03:24:21.568Z,96964.47
2022-10-15T03:26:48.341Z,96968.56
2022-10-15T03:29:15.418Z,96956.44
2022-10-15T03:31:42.189Z,96964.31
2022-10-15T03:34:09.450Z,96959.72
2022-10-15T03:36:36.205Z,96957.28
2022-10-15T03:39:03.621Z,96961.69
2022-10-15T03:41:30.667Z,96966.09
2022-10-15T03:44:02.410Z,96969.38
2022-10-15T03:46:29.317Z,96958.91
2022-10-15T03:48:56.249Z,96958.91
2022-10-15T03:51:25.513Z,96968.38
2022-10-15T03:53:54.777Z,96961.34
2022-10-15T03:56:21.742Z,96963.81
2022-10-15T03:58:49.325Z,96972.31
2022-10-15T04:01:18.606Z,96966.25
2022-10-15T04:03:45.780Z,96974.13
2022-10-15T04:06:12.707Z,96963.97
2022-10-15T04:08:39.628Z,96962.34
2022-10-15T04:11:06.471Z,96963.81
2022-10-15T04:13:33.360Z,96972.66
2022-10-15T04:16:00.163Z,96959.56
2022-10-15T04:18:27.023Z,96958.75
2022-10-15T04:20:53.789Z,96967.41
2022-10-15T04:23:20.679Z,96965.44
2022-10-15T04:25:47.567Z,96960.06
2022-10-15T04:28:14.479Z,96955.00
2022-10-15T04:30:41.579Z,96962.66
2022-10-15T04:33:09.568Z,96961.03
2022-10-15T04:35:36.562Z,96973.94
2022-10-15T04:38:03.493Z,96973.13
2022-10-15T04:40:31.155Z,96979.88
2022-10-15T04:42:58.070Z,96969.53
2022-10-15T04:45:25.141Z,96970.34
2022-10-15T04:47:52.710Z,96975.75
2022-10-15T04:50:19.935Z,96980.81
2022-10-15T04:52:46.895Z,96975.59
2022-10-15T04:55:13.852Z,96973.94
2022-10-15T04:57:40.629Z,96977.56
2022-10-15T05:00:08.236Z,96976.41
2022-10-15T05:02:35.023Z,96984.13
2022-10-15T05:05:01.790Z,96974.47
2022-10-15T05:07:28.552Z,96981.63
2022-10-15T05:09:55.271Z,96975.59
2022-10-15T05:12:22.012Z,96973.66
2022-10-15T05:14:48.753Z,96977.09
2022-10-15T05:17:15.526Z,96975.28
2022-10-15T05:19:42.481Z,96981.34
2022-10-15T05:22:09.202Z,96976.28
2022-10-15T05:24:35.897Z,96988.38
2022-10-15T05:27:03.228Z,96987.41
2022-10-15T05:29:30.447Z,96992.63
2022-10-15T05:31:57.235Z,96994.25
2022-10-15T05:34:24.658Z,97002.13
2022-10-15T05:36:51.402Z,97002.94
2022-10-15T05:39:18.154Z,96992.47
2022-10-15T05:41:45.000Z,97001.13
2022-10-15T05:44:11.752Z,97006.03
2022-10-15T05:46:39.230Z,97015.53
2022-10-15T05:49:05.936Z,97017.16
2022-10-15T05:51:32.668Z,97018.97
2022-10-15T05:53:59.787Z,97020.59
2022-10-15T05:56:27.848Z,97019.78
2022-10-15T05:58:55.549Z,97025.81
2022-10-15T06:01:23.007Z,97027.63
2022-10-15T06:03:49.826Z,97019.50
2022-10-15T06:06:23.703Z,97029.78
2022-10-15T06:08:51.781Z,97033.22
2022-10-15T06:11:19.470Z,97028.81
2022-10-15T06:13:47.057Z,97033.88
2022-10-15T06:16:19.389Z,97035.19
2022-10-15T06:18:49.635Z,97030.63
2022-10-15T06:21:16.416Z,97036.38
2022-10-15T06:23:43.256Z,97039.81
2022-10-15T06:26:10.716Z,97045.69
2022-10-15T06:28:38.819Z,97047.66
2022-10-15T06:31:07.074Z,97058.13
2022-10-15T06:33:35.603Z,97054.53
2022-10-15T06:36:07.092Z,97058.63
2022-10-15T06:38:34.501Z,97064.50
2022-10-15T06:41:06.096Z,97061.72
2022-10-15T06:43:35.267Z,97062.09
2022-10-15T06:46:05.256Z,97072.56
2022-10-15T06:48:32.921Z,97075.03
2022-10-15T06:51:01.868Z,97073.22
2022-10-15T06:53:30.962Z,97086.84
2022-10-15T06:56:01.742Z,97085.84
2022-10-15T06:58:29.067Z,97091.75
2022-10-15T07:01:05.403Z,97092.41
2022-10-15T07:03:32.692Z,97093.22
2022-10-15T07:06:05.485Z,97104.22
2022-10-15T07:08:33.272Z,97103.41
2022-10-15T07:11:06.038Z,97106.69
2022-10-15T07:13:35.342Z,97106.06
2022-10-15T07:16:08.721Z,97114.41
2022-10-15T07:18:36.307Z,97112.28
2022-10-15T07:21:06.362Z,97120.50
2022-10-15T07:23:33.585Z,97116.88
2022-10-15T07:26:01.357Z,97122.78
2022-10-15T07:28:28.392Z,97120.81
2022-10-15T07:30:59.576Z,97126.41
2022-10-15T07:33:29.050Z,97131.97
2022-10-15T07:35:55.776Z,97133.44
2022-10-15T07:38:22.498Z,97127.88
2022-10-15T07:40:49.301Z,97133.81
2022-10-15T07:43:16.029Z,97138.72
2022-10-15T07:45:49.046Z,97133.13
2022-10-15T07:48:16.754Z,97135.63
2022-10-15T07:50:43.643Z,97139.38
2022-10-15T07:53:10.552Z,97149.88
2022-10-15T07:55:37.761Z,97149.38
2022-10-15T07:58:05.794Z,97152.50
2022-10-15T08:03:05.508Z,97163.16
2022-10-15T08:05:33.506Z,97163.16
2022-10-15T08:08:00.499Z,97171.03
2022-10-15T08:10:28.152Z,97164.16
2022-10-15T08:12:54.998Z,97173.47
2022-10-15T08:15:21.781Z,97190.03
2022-10-15T08:17:48.780Z,97182.81
2022-10-15T08:20:15.640Z,97182.66
2022-10-15T08:22:43.012Z,97184.47
2022-10-15T08:25:09.957Z,97178.75
2022-10-15T08:27:37.573Z,97175.31
2022-10-15T08:30:05.103Z,97185.13
2022-10-15T08:32:31.866Z,97189.75
2022-10-15T08:34:58.618Z,97194.34
2022-10-15T08:37:25.815Z,97193.00
2022-10-15T08:39:52.715Z,97200.59
2022-10-15T08:42:45.551Z,97204.69
2022-10-15T08:45:28.548Z,97212.38
2022-10-15T08:48:33.707Z,97214.84
2022-10-15T08:51:08.773Z,97215.66
2022-10-15T08:53:49.399Z,97236.97
2022-10-15T08:56:27.839Z,97231.41
2022-10-15T08:59:32.213Z,97242.22
2022-10-15T09:02:24.919Z,97240.94
2022-10-15T09:08:33.100Z,97243.69
2022-10-15T09:11:09.760Z,97249.91
2022-10-15T09:14:02.368Z,97248.78
2022-10-15T09:16:37.786Z,97253.72
2022-10-15T09:19:15.247Z,97251.41
2022-10-15T09:21:43.073Z,97252.41
2022-10-15T09:24:16.737Z,97247.31
2022-10-15T09:27:19.871Z,97250.75
2022-10-15T09:30:12.767Z,97261.91
2022-10-15T09:33:02.029Z,97261.91
2022-10-15T09:35:35.110Z,97264.69
2022-10-15T09:38:43.083Z,97266.16
2022-10-15T09:41:54.008Z,97267.13
2022-10-15T09:44:25.472Z,97270.06
2022-10-15T09:46:52.716Z,97263.66
2022-10-15T09:49:30.265Z,97275.13
2022-10-15T09:52:42.393Z,97278.69
2022-10-15T09:55:47.664Z,97269.47
2022-10-15T09:58:19.385Z,97282.47
2022-10-15T10:01:16.875Z,97283.78
2022-10-15T10:03:43.647Z,97289.38
2022-10-15T10:06:13.775Z,97286.91
2022-10-15T10:08:50.554Z,97300.19
2022-10-15T10:11:18.933Z,97291.19
2022-10-15T10:13:48.236Z,97294.16
2022-10-15T10:16:18.129Z,97302.22
2022-10-15T10:19:02.969Z,97305.97
2022-10-15T10:21:39.162Z,97314.03
2022-10-15T10:24:41.521Z,97305.16
2022-10-15T10:27:24.823Z,97302.88
2022-10-15T10:29:59.486Z,97319.75
2022-10-15T10:32:35.163Z,97308.75
2022-10-15T10:35:04.977Z,97311.03
2022-10-15T10:37:42.867Z,97316.94
2022-10-15T10:40:29.275Z,97312.03
2022-10-15T10:43:16.438Z,97311.03
2022-10-15T10:46:17.272Z,97313.69
2022-10-15T10:49:02.025Z,97308.75
2022-10-15T10:51:30.779Z,97310.88
2022-10-15T10:54:14.798Z,97309.66
2022-10-15T10:56:45.018Z,97312.31
2022-10-15T10:59:35.425Z,97307.63
2022-10-15T11:02:04.590Z,97320.25
2022-10-15T11:04:35.069Z,97302.56
2022-10-15T11:07:21.074Z,97319.03
2022-10-15T11:10:37.493Z,97318.66
2022-10-15T11:13:31.383Z,97321.03
2022-10-15T11:16:46.827Z,97321.66
2022-10-15T11:22:54.829Z,97336.25
2022-10-15T11:25:40.009Z,97330.09
2022-10-15T11:28:53.903Z,97329.16
2022-10-15T11:32:01.771Z,97325.13
2022-10-15T11:35:51.587Z,97333.38
2022-10-15T11:57:03.623Z,97320.06
2022-10-15T11:59:53.204Z,97317.91
2022-10-15T12:02:33.402Z,97321.78
2022-10-15T12:05:19.632Z,97315.06
2022-10-15T12:07:49.878Z,97308.00
2022-10-15T12:10:52.482Z,97315.53
2022-10-15T12:13:48.298Z,97307.53
2022-10-15T12:16:38.913Z,97305.19
2022-10-15T12:19:16.509Z,97316.41
2022-10-15T12:22:10.651Z,97307.09
2022-10-15T12:24:50.347Z,97306.97
2022-10-15T12:27:20.057Z,97309.59
2022-10-15T12:29:50.493Z,97300.38
2022-10-15T12:32:24.826Z,97304.94
2022-10-15T12:34:58.885Z,97302.78
2022-10-15T12:37:30.594Z,97304.25
2022-10-15T12:40:06.947Z,97300.81
2022-10-15T12:42:38.259Z,97295.22
2022-10-15T12:45:23.862Z,97295.75
2022-10-15T12:47:55.260Z,97289.03
2022-10-15T12:50:30.995Z,97296.03
2022-10-15T12:53:05.497Z,97294.84
2022-10-15T12:55:41.410Z,97290.59
2022-10-15T12:58:34.805Z,97286.72
2022-10-15T13:01:14.619Z,97295.47
2022-10-15T13:04:00.377Z,97288.22
2022-10-15T13:06:38.692Z,97292.63
2022-10-15T13:09:11.501Z,97284.34
2022-10-15T13:11:49.031Z,97289.38
2022-10-15T13:14:32.913Z,97286.97
2022-10-15T13:17:06.055Z,97287.63
2022-10-15T13:19:48.494Z,97291.59
2022-10-15T13:22:29.337Z,97291.91
2022-10-15T13:24:57.313Z,97294.44
2022-10-15T13:27:37.454Z,97298.69
2022-10-15T13:30:14.261Z,97287.91
2022-10-15T13:32:50.048Z,97295.28
2022-10-15T13:35:26.137Z,97289.44
2022-10-15T13:37:53.120Z,97294.75
2022-10-15T13:40:26.973Z,97298.22
2022-10-15T13:43:02.431Z,97284.56
2022-10-15T13:45:30.320Z,97286.22
2022-10-15T13:47:57.109Z,97293.25
2022-10-15T13:50:38.306Z,97287.63
2022-10-15T13:53:29.911Z,97276.66
2022-10-15T13:56:01.494Z,97284.22
2022-10-15T13:58:33.260Z,97280.34
2022-10-15T14:01:13.698Z,97280.97
2022-10-15T14:03:51.397Z,97277.81
2022-10-15T14:06:38.193Z,97281.53
2022-10-15T14:09:26.763Z,97274.69
2022-10-15T14:12:00.671Z,97274.97
2022-10-15T14:14:37.821Z,97272.59
2022-10-15T14:17:27.911Z,97280.91
2022-10-15T14:20:26.311Z,97280.91
2022-10-15T14:22:51.683Z,97295.56
2022-10-15T14:25:25.056Z,97290.88
2022-10-15T14:27:52.852Z,97297.34
2022-10-15T14:30:31.961Z,97296.72
2022-10-15T14:32:58.842Z,97282.88
2022-10-15T14:35:35.421Z,97284.25
2022-10-15T14:38:16.463Z,97278.69
2022-10-15T14:41:06.469Z,97278.19
2022-10-15T14:43:37.074Z,97275.09
2022-10-15T14:46:11.828Z,97281.56
2022-10-15T14:48:40.569Z,97274.97
2022-10-15T14:51:25.737Z,97275.69
2022-10-15T14:53:53.711Z,97279.84
2022-10-15T14:56:24.988Z,97277.75
2022-10-15T14:58:56.803Z,97281.88
2022-10-15T15:01:25.164Z,97278.53
2022-10-15T15:03:55.778Z,97279.19
2022-10-15T15:06:22.736Z,97281.47
2022-10-15T15:08:49.664Z,97283.09
2022-10-15T15:11:25.460Z,97273.28
2022-10-15T15:13:53.659Z,97280.81
2022-10-15T15:16:20.550Z,97290.69
2022-10-15T15:18:48.630Z,97288.34
2022-10-15T15:21:23.544Z,97290.94
2022-10-15T15:23:57.948Z,97291.09
2022-10-15T15:26:25.237Z,97288.22
2022-10-15T15:28:52.188Z,97291.72
2022-10-15T15:31:19.117Z,97279.41
2022-10-15T15:33:46.393Z,97275.50
2022-10-15T15:36:19.163Z,97278.31
2022-10-15T15:38:49.702Z,97280.47
2022-10-15T15:41:20.116Z,97279.84
2022-10-15T15:43:48.254Z,97284.59
2022-10-15T15:46:15.654Z,97281.50
2022-10-15T15:48:42.582Z,97286.31
2022-10-15T15:51:30.092Z,97291.91
2022-10-15T15:53:57.326Z,97294.03
2022-10-15T15:56:25.131Z,97298.81
2022-10-15T15:58:52.367Z,97297.00
2022-10-15T16:01:20.995Z,97304.63
2022-10-15T16:03:48.122Z,97305.75
2022-10-15T16:06:15.018Z,97298.03
2022-10-15T16:08:41.804Z,97313.00
2022-10-15T16:11:08.566Z,97308.91
2022-10-15T16:13:35.956Z,97309.25
2022-10-15T16:16:03.575Z,97316.50
2022-10-15T16:18:30.424Z,97312.38
2022-10-15T16:20:57.732Z,97323.88
2022-10-15T16:23:24.778Z,97320.78
2022-10-15T16:25:54.481Z,97324.41
2022-10-15T16:28:21.458Z,97330.66
2022-10-15T16:30:48.279Z,97319.50
2022-10-15T16:33:15.384Z,97339.38
2022-10-15T16:35:42.220Z,97343.81
2022-10-15T16:38:09.296Z,97346.63
2022-10-15T16:40:36.080Z,97346.97
2022-10-15T16:43:02.948Z,97362.25
2022-10-15T16:45:29.715Z,97359.78
2022-10-15T16:47:56.625Z,97366.03
2022-10-15T16:50:23.740Z,97363.75
2022-10-15T16:52:50.518Z,97361.13
2022-10-15T16:55:17.435Z,97371.81
2022-10-15T16:57:44.458Z,97372.63
2022-10-15T17:00:12.062Z,97372.97
2022-10-15T17:02:38.864Z,97377.41
2022-10-15T17:05:06.581Z,97374.09
2022-10-15T17:07:33.459Z,97376.09
2022-10-15T17:10:00.601Z,97377.06
2022-10-15T17:12:28.021Z,97379.69
2022-10-15T17:14:55.584Z,97378.06
2022-10-15T17:17:22.643Z,97381.03
2022-10-15T17:19:49.508Z,97387.28
2022-10-15T17:22:16.830Z,97391.22
2022-10-15T17:24:43.801Z,97395.00
2022-10-15T17:27:10.547Z,97406.66
2022-10-15T17:29:37.326Z,97400.94
2022-10-15T17:32:04.384Z,97396.97
2022-10-15T17:34:31.280Z,97405.03
2022-10-15T17:36:58.050Z,97412.25
2022-10-15T17:39:24.852Z,97410.63
2022-10-15T17:41:52.138Z,97413.59
2022-10-15T17:44:20.092Z,97409.31
2022-10-15T17:49:18.257Z,97422.94
2022-10-15T17:51:46.148Z,97418.81
2022-10-15T17:54:13.298Z,97419.97
2022-10-15T17:56:40.155Z,97425.22
2022-10-15T17:59:11.246Z,97429.66
2022-10-15T18:02:00.284Z,97427.19
2022-10-15T18:04:29.479Z,97425.72
2022-10-15T18:06:56.715Z,97433.94
2022-10-15T18:09:26.531Z,97429.78
2022-10-15T18:11:53.407Z,97425.69
2022-10-15T18:16:52.134Z,97427.66
2022-10-15T18:19:19.333Z,97431.28
2022-10-15T18:21:48.768Z,97429.66
2022-10-15T18:24:20.997Z,97428.81
2022-10-15T18:26:48.024Z,97426.38
2022-10-15T18:29:15.254Z,97433.56
2022-10-15T18:31:42.041Z,97437.16
2022-10-15T18:34:09.048Z,97439.13
2022-10-15T18:36:35.798Z,97432.41
2022-10-15T18:39:02.507Z,97447.03
2022-10-15T18:41:33.710Z,97443.72
2022-10-15T18:44:05.015Z,97444.88
2022-10-15T18:46:34.621Z,97461.78
2022-10-15T18:49:02.391Z,97449.63
2022-10-15T18:51:30.582Z,97458.50
2022-10-15T18:53:59.954Z,97450.13
2022-10-15T18:56:27.743Z,97448.78
2022-10-15T18:58:55.420Z,97448.13
2022-10-15T19:01:25.057Z,97451.91
2022-10-15T19:03:53.155Z,97453.88
2022-10-15T19:06:27.770Z,97447.31
2022-10-15T19:08:58.569Z,97452.69
2022-10-15T19:11:26.837Z,97444.31
2022-10-15T19:13:56.778Z,97454.97
2022-10-15T19:16:23.704Z,97454.47
2022-10-15T19:18:50.723Z,97446.94
2022-10-15T19:21:18.747Z,97446.75
2022-10-15T19:23:45.625Z,97451.94
2022-10-15T19:26:13.846Z,97460.31
2022-10-15T19:28:41.151Z,97455.97
2022-10-15T19:31:12.577Z,97457.91
2022-10-15T19:33:39.509Z,97466.28
2022-10-15T19:36:06.926Z,97460.81
2022-10-15T19:38:33.946Z,97466.38
2022-10-15T19:41:04.709Z,97461.63
2022-10-15T19:43:31.525Z,97463.03
2022-10-15T19:46:05.053Z,97469.91
2022-10-15T19:48:32.415Z,97468.88
2022-10-15T19:51:02.718Z,97486.03
2022-10-15T19:53:32.131Z,97484.03
2022-10-15T19:56:03.966Z,97481.22
2022-10-15T19:58:31.771Z,97491.47
2022-10-15T20:00:58.703Z,97503.91
2022-10-15T20:03:28.468Z,97502.72
2022-10-15T20:05:56.873Z,97500.38
2022-10-15T20:08:24.267Z,97507.59
2022-10-15T20:10:52.433Z,97501.69
2022-10-15T20:13:24.787Z,97505.28
2022-10-15T20:15:54.358Z,97503.47
2022-10-15T20:18:22.263Z,97508.56
2022-10-15T20:20:49.256Z,97511.84
2022-10-15T20:23:17.144Z,97519.44
2022-10-15T20:25:45.543Z,97530.13
2022-10-15T20:28:16.233Z,97530.63
2022-10-15T20:30:43.043Z,97530.03
2022-10-15T20:33:12.744Z,97533.00
2022-10-15T20:35:41.223Z,97540.28
2022-10-15T20:38:08.244Z,97537.34
2022-10-15T20:40:39.456Z,97541.28
2022-10-15T20:43:06.227Z,97540.31
2022-10-15T20:45:44.426Z,97557.09
2022-10-15T20:48:20.004Z,97553.19
2022-10-15T20:50:49.503Z,97556.19
2022-10-15T20:53:18.330Z,97557.50
2022-10-15T20:55:45.201Z,97555.56
2022-10-15T20:58:12.081Z,97557.19
2022-10-15T21:00:38.906Z,97560.47
2022-10-15T21:03:05.809Z,97560.47
2022-10-15T21:05:32.542Z,97568.06
2022-10-15T21:08:00.601Z,97573.97
2022-10-15T21:10:27.491Z,97570.38
2022-10-15T21:12:54.516Z,97571.19
2022-10-15T21:15:21.674Z,97574.63
2022-10-15T21:17:48.387Z,97569.25
2022-10-15T21:20:15.444Z,97566.44
2022-10-15T21:22:42.156Z,97567.28
2022-10-15T21:25:09.134Z,97563.00
2022-10-15T21:27:35.901Z,97559.56
2022-10-15T21:30:02.605Z,97567.44
2022-10-15T21:32:29.367Z,97573.50
2022-10-15T21:34:56.152Z,97574.47
2022-10-15T21:37:23.201Z,97579.72
2022-10-15T21:39:50.869Z,97583.16
2022-10-15T21:42:17.611Z,97581.38
2022-10-15T21:44:44.630Z,97581.38
2022-10-15T21:47:14.373Z,97577.75
2022-10-15T21:49:42.277Z,97575.16
2022-10-15T21:52:09.244Z,97575.31
2022-10-15T21:54:36.081Z,97580.56
2022-10-15T21:57:02.891Z,97584.16
2022-10-15T21:59:29.675Z,97579.06
2022-10-15T22:01:56.680Z,97593.16
2022-10-15T22:04:23.691Z,97598.56
2022-10-15T22:06:50.524Z,97596.91
2022-10-15T22:09:17.337Z,97594.28
2022-10-15T22:11:44.562Z,97594.28
2022-10-15T22:14:13.773Z,97596.91
2022-10-15T22:16:42.347Z,97611.69
2022-10-15T22:19:14.300Z,97607.41
2022-10-15T22:21:41.518Z,97604.09
2022-10-15T22:24:15.205Z,97599.66
2022-10-15T22:26:48.884Z,97604.91
2022-10-15T22:29:35.586Z,97597.19
2022-10-15T22:32:03.708Z,97602.28
2022-10-15T22:34:30.776Z,97598.84
2022-10-15T22:36:57.728Z,97598.03
2022-10-15T22:39:24.893Z,97608.50
2022-10-15T22:41:51.785Z,97608.50
2022-10-15T22:44:20.988Z,97606.88
2022-10-15T22:46:49.834Z,97606.03
2022-10-15T22:49:22.499Z,97599.81
2022-10-15T22:51:50.517Z,97602.44
2022-10-15T22:54:20.400Z,97606.03
2022-10-15T22:56:47.365Z,97600.66
2022-10-15T22:59:15.575Z,97609.34
2022-10-15T23:01:42.757Z,97609.50
2022-10-15T23:04:13.588Z,97614.59
2022-10-15T23:06:41.021Z,97611.97
2022-10-15T23:09:08.868Z,97618.84
2022-10-15T23:11:39.827Z,97611.28
2022-10-15T23:14:11.850Z,97616.38
2022-10-15T23:16:42.618Z,97616.22
2022-10-15T23:19:22.624Z,97610.97
2022-10-15T23:21:52.899Z,97623.16
2022-10-15T23:24:22.694Z,97616.94
2022-10-15T23:26:50.325Z,97622.16
2022-10-15T23:29:23.959Z,97620.38
2022-10-15T23:31:52.647Z,97630.88
2022-10-15T23:34:23.407Z,97627.41
2022-10-15T23:36:50.966Z,97634.31
2022-10-15T23:39:23.559Z,97635.94
2022-10-15T23:41:50.814Z,97639.56
2022-10-15T23:44:17.798Z,97630.03
2022-10-15T23:46:45.221Z,97627.53
2022-10-15T23:49:12.636Z,97618.84
2022-10-15T23:51:39.541Z,97623.16
2022-10-15T23:54:18.113Z,97625.78
2022-10-15T23:56:46.891Z,97628.41
2022-10-15T23:59:14.152Z,97621.47
